sensor_id;sensor_type;location;lat;lon;timestamp;P1;durP1;ratioP1;P2;durP2;ratioP2
12348;SDS011;5974;42.710;27.258;2023-03-14T00:00:04;1.43;;;1.33;;
12348;SDS011;5974;42.710;27.258;2023-03-14T00:02:33;4.57;;;1.63;;
12348;SDS011;5974;42.710;27.258;2023-03-14T00:05:00;1.50;;;1.27;;
12348;SDS011;5974;42.710;27.258;2023-03-14T00:07:32;1.83;;;1.30;;
12348;SDS011;5974;42.710;27.258;2023-03-14T00:10:00;1.80;;;1.20;;
12348;SDS011;5974;42.710;27.258;2023-03-14T00:12:29;1.47;;;1.37;;
12348;SDS011;5974;42.710;27.258;2023-03-14T00:14:57;2.23;;;1.80;;
12348;SDS011;5974;42.710;27.258;2023-03-14T00:17:25;2.43;;;1.50;;
12348;SDS011;5974;42.710;27.258;2023-03-14T00:19:52;1.87;;;1.47;;
12348;SDS011;5974;42.710;27.258;2023-03-14T00:22:19;1.60;;;1.50;;
12348;SDS011;5974;42.710;27.258;2023-03-14T00:24:47;2.50;;;1.37;;
12348;SDS011;5974;42.710;27.258;2023-03-14T00:27:14;2.00;;;1.40;;
12348;SDS011;5974;42.710;27.258;2023-03-14T00:29:42;3.67;;;1.47;;
12348;SDS011;5974;42.710;27.258;2023-03-14T00:32:09;1.67;;;1.40;;
12348;SDS011;5974;42.710;27.258;2023-03-14T00:34:36;2.10;;;1.50;;
12348;SDS011;5974;42.710;27.258;2023-03-14T00:37:03;1.30;;;1.20;;
12348;SDS011;5974;42.710;27.258;2023-03-14T00:39:30;2.47;;;1.50;;
12348;SDS011;5974;42.710;27.258;2023-03-14T00:41:58;1.63;;;1.53;;
12348;SDS011;5974;42.710;27.258;2023-03-14T00:44:25;2.40;;;1.40;;
12348;SDS011;5974;42.710;27.258;2023-03-14T00:46:52;2.80;;;1.57;;
12348;SDS011;5974;42.710;27.258;2023-03-14T00:49:19;1.53;;;1.43;;
12348;SDS011;5974;42.710;27.258;2023-03-14T00:51:46;2.20;;;1.40;;
12348;SDS011;5974;42.710;27.258;2023-03-14T00:54:13;1.97;;;1.67;;
12348;SDS011;5974;42.710;27.258;2023-03-14T00:56:39;2.43;;;1.57;;
12348;SDS011;5974;42.710;27.258;2023-03-14T00:59:08;1.20;;;1.20;;
12348;SDS011;5974;42.710;27.258;2023-03-14T01:01:35;1.70;;;1.60;;
12348;SDS011;5974;42.710;27.258;2023-03-14T01:04:02;3.37;;;1.37;;
12348;SDS011;5974;42.710;27.258;2023-03-14T01:06:29;1.53;;;1.43;;
12348;SDS011;5974;42.710;27.258;2023-03-14T01:08:56;2.30;;;1.53;;
12348;SDS011;5974;42.710;27.258;2023-03-14T01:11:24;5.70;;;1.67;;
12348;SDS011;5974;42.710;27.258;2023-03-14T01:13:53;1.50;;;1.40;;
12348;SDS011;5974;42.710;27.258;2023-03-14T01:16:23;2.60;;;1.60;;
12348;SDS011;5974;42.710;27.258;2023-03-14T01:18:52;2.57;;;1.20;;
12348;SDS011;5974;42.710;27.258;2023-03-14T01:21:20;3.23;;;1.60;;
12348;SDS011;5974;42.710;27.258;2023-03-14T01:23:48;4.10;;;1.40;;
12348;SDS011;5974;42.710;27.258;2023-03-14T01:26:16;1.33;;;1.23;;
12348;SDS011;5974;42.710;27.258;2023-03-14T01:28:45;3.03;;;1.60;;
12348;SDS011;5974;42.710;27.258;2023-03-14T01:31:13;1.47;;;1.33;;
12348;SDS011;5974;42.710;27.258;2023-03-14T01:33:41;1.50;;;1.40;;
12348;SDS011;5974;42.710;27.258;2023-03-14T01:36:09;1.70;;;1.40;;
12348;SDS011;5974;42.710;27.258;2023-03-14T01:38:37;2.83;;;1.37;;
12348;SDS011;5974;42.710;27.258;2023-03-14T01:41:05;2.03;;;1.60;;
12348;SDS011;5974;42.710;27.258;2023-03-14T01:43:33;1.87;;;1.50;;
12348;SDS011;5974;42.710;27.258;2023-03-14T01:46:12;1.37;;;1.27;;
12348;SDS011;5974;42.710;27.258;2023-03-14T01:48:47;5.57;;;1.50;;
12348;SDS011;5974;42.710;27.258;2023-03-14T01:51:20;1.33;;;1.30;;
12348;SDS011;5974;42.710;27.258;2023-03-14T01:53:50;1.40;;;1.20;;
12348;SDS011;5974;42.710;27.258;2023-03-14T01:56:22;1.40;;;1.30;;
12348;SDS011;5974;42.710;27.258;2023-03-14T01:58:50;1.87;;;1.60;;
12348;SDS011;5974;42.710;27.258;2023-03-14T02:01:18;2.43;;;1.57;;
12348;SDS011;5974;42.710;27.258;2023-03-14T02:03:52;1.77;;;1.40;;
12348;SDS011;5974;42.710;27.258;2023-03-14T02:06:21;2.03;;;1.50;;
12348;SDS011;5974;42.710;27.258;2023-03-14T02:08:52;3.27;;;1.50;;
12348;SDS011;5974;42.710;27.258;2023-03-14T02:11:19;3.50;;;1.50;;
12348;SDS011;5974;42.710;27.258;2023-03-14T02:13:47;1.50;;;1.33;;
12348;SDS011;5974;42.710;27.258;2023-03-14T02:16:15;2.10;;;1.63;;
12348;SDS011;5974;42.710;27.258;2023-03-14T02:18:42;1.70;;;1.30;;
12348;SDS011;5974;42.710;27.258;2023-03-14T02:21:14;1.37;;;1.27;;
12348;SDS011;5974;42.710;27.258;2023-03-14T02:23:48;3.90;;;1.40;;
12348;SDS011;5974;42.710;27.258;2023-03-14T02:26:21;1.67;;;1.50;;
12348;SDS011;5974;42.710;27.258;2023-03-14T02:28:52;1.70;;;1.60;;
12348;SDS011;5974;42.710;27.258;2023-03-14T02:31:20;2.20;;;1.70;;
12348;SDS011;5974;42.710;27.258;2023-03-14T02:33:48;3.07;;;1.60;;
12348;SDS011;5974;42.710;27.258;2023-03-14T02:36:16;2.73;;;1.70;;
12348;SDS011;5974;42.710;27.258;2023-03-14T02:38:46;2.47;;;1.40;;
12348;SDS011;5974;42.710;27.258;2023-03-14T02:41:18;1.70;;;1.60;;
12348;SDS011;5974;42.710;27.258;2023-03-14T02:43:44;1.60;;;1.50;;
12348;SDS011;5974;42.710;27.258;2023-03-14T02:46:14;1.87;;;1.70;;
12348;SDS011;5974;42.710;27.258;2023-03-14T02:48:45;1.47;;;1.37;;
12348;SDS011;5974;42.710;27.258;2023-03-14T02:51:16;2.23;;;1.60;;
12348;SDS011;5974;42.710;27.258;2023-03-14T02:53:43;1.33;;;1.20;;
12348;SDS011;5974;42.710;27.258;2023-03-14T02:56:10;2.00;;;1.33;;
12348;SDS011;5974;42.710;27.258;2023-03-14T02:58:37;2.53;;;1.70;;
12348;SDS011;5974;42.710;27.258;2023-03-14T03:01:04;1.50;;;1.40;;
12348;SDS011;5974;42.710;27.258;2023-03-14T03:03:32;1.57;;;1.47;;
12348;SDS011;5974;42.710;27.258;2023-03-14T03:06:00;1.83;;;1.67;;
12348;SDS011;5974;42.710;27.258;2023-03-14T03:08:27;2.13;;;1.90;;
12348;SDS011;5974;42.710;27.258;2023-03-14T03:10:55;2.63;;;1.70;;
12348;SDS011;5974;42.710;27.258;2023-03-14T03:13:23;5.00;;;1.80;;
12348;SDS011;5974;42.710;27.258;2023-03-14T03:15:50;2.03;;;1.53;;
12348;SDS011;5974;42.710;27.258;2023-03-14T03:18:17;3.00;;;1.53;;
12348;SDS011;5974;42.710;27.258;2023-03-14T03:20:45;2.20;;;1.50;;
12348;SDS011;5974;42.710;27.258;2023-03-14T03:23:12;2.60;;;1.40;;
12348;SDS011;5974;42.710;27.258;2023-03-14T03:25:39;1.60;;;1.50;;
12348;SDS011;5974;42.710;27.258;2023-03-14T03:28:06;1.50;;;1.40;;
12348;SDS011;5974;42.710;27.258;2023-03-14T03:30:36;2.13;;;1.70;;
12348;SDS011;5974;42.710;27.258;2023-03-14T03:33:04;1.80;;;1.20;;
12348;SDS011;5974;42.710;27.258;2023-03-14T03:35:31;2.27;;;1.50;;
12348;SDS011;5974;42.710;27.258;2023-03-14T03:37:59;1.70;;;1.60;;
12348;SDS011;5974;42.710;27.258;2023-03-14T03:40:26;1.67;;;1.43;;
12348;SDS011;5974;42.710;27.258;2023-03-14T03:42:54;1.83;;;1.70;;
12348;SDS011;5974;42.710;27.258;2023-03-14T03:45:21;4.43;;;1.80;;
12348;SDS011;5974;42.710;27.258;2023-03-14T03:47:47;4.23;;;1.80;;
12348;SDS011;5974;42.710;27.258;2023-03-14T03:50:14;1.70;;;1.60;;
12348;SDS011;5974;42.710;27.258;2023-03-14T03:52:42;2.17;;;1.90;;
12348;SDS011;5974;42.710;27.258;2023-03-14T03:55:10;3.87;;;1.73;;
12348;SDS011;5974;42.710;27.258;2023-03-14T03:57:37;3.40;;;1.70;;
12348;SDS011;5974;42.710;27.258;2023-03-14T04:00:04;3.47;;;1.90;;
12348;SDS011;5974;42.710;27.258;2023-03-14T04:02:34;2.60;;;1.80;;
12348;SDS011;5974;42.710;27.258;2023-03-14T04:05:01;1.80;;;1.70;;
12348;SDS011;5974;42.710;27.258;2023-03-14T04:07:27;2.20;;;2.00;;
12348;SDS011;5974;42.710;27.258;2023-03-14T04:09:54;3.33;;;1.70;;
12348;SDS011;5974;42.710;27.258;2023-03-14T04:12:22;2.13;;;1.93;;
12348;SDS011;5974;42.710;27.258;2023-03-14T04:14:49;2.00;;;1.77;;
12348;SDS011;5974;42.710;27.258;2023-03-14T04:17:16;5.03;;;2.00;;
12348;SDS011;5974;42.710;27.258;2023-03-14T04:19:43;2.10;;;1.90;;
12348;SDS011;5974;42.710;27.258;2023-03-14T04:22:10;3.63;;;1.90;;
12348;SDS011;5974;42.710;27.258;2023-03-14T04:24:36;3.40;;;2.00;;
12348;SDS011;5974;42.710;27.258;2023-03-14T04:27:03;1.80;;;1.70;;
12348;SDS011;5974;42.710;27.258;2023-03-14T04:29:31;2.60;;;1.90;;
12348;SDS011;5974;42.710;27.258;2023-03-14T04:31:58;2.80;;;1.90;;
12348;SDS011;5974;42.710;27.258;2023-03-14T04:34:25;2.83;;;1.80;;
12348;SDS011;5974;42.710;27.258;2023-03-14T04:36:52;2.90;;;1.90;;
12348;SDS011;5974;42.710;27.258;2023-03-14T04:39:19;2.83;;;2.17;;
12348;SDS011;5974;42.710;27.258;2023-03-14T04:41:45;3.23;;;2.00;;
12348;SDS011;5974;42.710;27.258;2023-03-14T04:44:12;5.77;;;3.13;;
12348;SDS011;5974;42.710;27.258;2023-03-14T04:46:40;2.63;;;1.97;;
12348;SDS011;5974;42.710;27.258;2023-03-14T04:49:07;3.53;;;1.80;;
12348;SDS011;5974;42.710;27.258;2023-03-14T04:51:34;9.03;;;2.40;;
12348;SDS011;5974;42.710;27.258;2023-03-14T04:54:01;2.40;;;2.03;;
12348;SDS011;5974;42.710;27.258;2023-03-14T04:56:28;4.73;;;2.27;;
12348;SDS011;5974;42.710;27.258;2023-03-14T04:58:54;2.83;;;2.03;;
12348;SDS011;5974;42.710;27.258;2023-03-14T05:01:21;3.57;;;2.10;;
12348;SDS011;5974;42.710;27.258;2023-03-14T05:03:49;7.07;;;2.47;;
12348;SDS011;5974;42.710;27.258;2023-03-14T05:06:16;2.50;;;2.30;;
12348;SDS011;5974;42.710;27.258;2023-03-14T05:08:43;3.77;;;2.10;;
12348;SDS011;5974;42.710;27.258;2023-03-14T05:11:10;6.03;;;2.53;;
12348;SDS011;5974;42.710;27.258;2023-03-14T05:13:37;2.70;;;2.00;;
12348;SDS011;5974;42.710;27.258;2023-03-14T05:16:05;3.20;;;2.13;;
12348;SDS011;5974;42.710;27.258;2023-03-14T05:18:33;4.37;;;2.47;;
12348;SDS011;5974;42.710;27.258;2023-03-14T05:21:01;2.90;;;2.23;;
12348;SDS011;5974;42.710;27.258;2023-03-14T05:23:29;2.30;;;2.00;;
12348;SDS011;5974;42.710;27.258;2023-03-14T05:25:56;4.63;;;2.20;;
12348;SDS011;5974;42.710;27.258;2023-03-14T05:28:23;2.73;;;2.00;;
12348;SDS011;5974;42.710;27.258;2023-03-14T05:30:50;3.23;;;2.10;;
12348;SDS011;5974;42.710;27.258;2023-03-14T05:33:17;2.87;;;1.70;;
12348;SDS011;5974;42.710;27.258;2023-03-14T05:35:44;4.53;;;2.03;;
12348;SDS011;5974;42.710;27.258;2023-03-14T05:38:12;36.27;;;16.00;;
12348;SDS011;5974;42.710;27.258;2023-03-14T05:40:39;74.00;;;34.87;;
12348;SDS011;5974;42.710;27.258;2023-03-14T05:43:06;10.90;;;6.77;;
12348;SDS011;5974;42.710;27.258;2023-03-14T05:45:33;27.40;;;16.47;;
12348;SDS011;5974;42.710;27.258;2023-03-14T05:48:02;7.80;;;5.90;;
12348;SDS011;5974;42.710;27.258;2023-03-14T05:50:29;3.53;;;3.23;;
12348;SDS011;5974;42.710;27.258;2023-03-14T05:52:56;4.30;;;2.27;;
12348;SDS011;5974;42.710;27.258;2023-03-14T05:55:24;2.63;;;2.23;;
12348;SDS011;5974;42.710;27.258;2023-03-14T05:57:52;3.27;;;2.33;;
12348;SDS011;5974;42.710;27.258;2023-03-14T06:00:19;3.83;;;2.90;;
12348;SDS011;5974;42.710;27.258;2023-03-14T06:02:47;5.33;;;3.20;;
12348;SDS011;5974;42.710;27.258;2023-03-14T06:05:14;6.50;;;3.77;;
12348;SDS011;5974;42.710;27.258;2023-03-14T06:07:40;4.70;;;3.70;;
12348;SDS011;5974;42.710;27.258;2023-03-14T06:10:08;6.57;;;3.97;;
12348;SDS011;5974;42.710;27.258;2023-03-14T06:12:37;9.33;;;8.43;;
12348;SDS011;5974;42.710;27.258;2023-03-14T06:15:04;13.13;;;9.47;;
12348;SDS011;5974;42.710;27.258;2023-03-14T06:17:31;25.87;;;13.97;;
12348;SDS011;5974;42.710;27.258;2023-03-14T06:19:58;32.70;;;20.50;;
12348;SDS011;5974;42.710;27.258;2023-03-14T06:22:25;35.20;;;22.97;;
12348;SDS011;5974;42.710;27.258;2023-03-14T06:24:52;30.77;;;20.63;;
12348;SDS011;5974;42.710;27.258;2023-03-14T06:27:19;35.10;;;20.50;;
12348;SDS011;5974;42.710;27.258;2023-03-14T06:29:47;24.40;;;18.70;;
12348;SDS011;5974;42.710;27.258;2023-03-14T06:32:14;29.47;;;20.77;;
12348;SDS011;5974;42.710;27.258;2023-03-14T06:34:40;44.37;;;23.87;;
12348;SDS011;5974;42.710;27.258;2023-03-14T06:37:07;37.13;;;23.63;;
12348;SDS011;5974;42.710;27.258;2023-03-14T06:39:34;35.37;;;24.47;;
12348;SDS011;5974;42.710;27.258;2023-03-14T06:42:02;35.17;;;24.93;;
12348;SDS011;5974;42.710;27.258;2023-03-14T06:44:29;44.33;;;31.10;;
12348;SDS011;5974;42.710;27.258;2023-03-14T06:46:57;41.73;;;28.10;;
12348;SDS011;5974;42.710;27.258;2023-03-14T06:49:24;41.60;;;26.00;;
12348;SDS011;5974;42.710;27.258;2023-03-14T06:51:51;36.70;;;26.70;;
12348;SDS011;5974;42.710;27.258;2023-03-14T06:54:18;43.47;;;28.97;;
12348;SDS011;5974;42.710;27.258;2023-03-14T06:56:45;42.43;;;28.47;;
12348;SDS011;5974;42.710;27.258;2023-03-14T06:59:12;36.23;;;26.10;;
12348;SDS011;5974;42.710;27.258;2023-03-14T07:01:38;26.87;;;19.60;;
12348;SDS011;5974;42.710;27.258;2023-03-14T07:04:07;39.53;;;25.43;;
12348;SDS011;5974;42.710;27.258;2023-03-14T07:06:35;24.50;;;17.20;;
12348;SDS011;5974;42.710;27.258;2023-03-14T07:09:02;20.93;;;14.07;;
12348;SDS011;5974;42.710;27.258;2023-03-14T07:11:29;12.27;;;7.33;;
12348;SDS011;5974;42.710;27.258;2023-03-14T07:13:56;10.20;;;8.33;;
12348;SDS011;5974;42.710;27.258;2023-03-14T07:16:23;10.43;;;7.23;;
12348;SDS011;5974;42.710;27.258;2023-03-14T07:18:53;13.37;;;8.60;;
12348;SDS011;5974;42.710;27.258;2023-03-14T07:21:21;13.43;;;7.23;;
12348;SDS011;5974;42.710;27.258;2023-03-14T07:23:49;9.43;;;6.10;;
12348;SDS011;5974;42.710;27.258;2023-03-14T07:26:15;9.03;;;6.30;;
12348;SDS011;5974;42.710;27.258;2023-03-14T07:28:42;10.50;;;8.40;;
12348;SDS011;5974;42.710;27.258;2023-03-14T07:31:09;8.70;;;4.87;;
12348;SDS011;5974;42.710;27.258;2023-03-14T07:33:36;13.47;;;6.27;;
12348;SDS011;5974;42.710;27.258;2023-03-14T07:36:03;9.53;;;5.50;;
12348;SDS011;5974;42.710;27.258;2023-03-14T07:38:32;4.10;;;3.13;;
12348;SDS011;5974;42.710;27.258;2023-03-14T07:40:59;5.77;;;4.67;;
12348;SDS011;5974;42.710;27.258;2023-03-14T07:43:26;6.83;;;3.40;;
12348;SDS011;5974;42.710;27.258;2023-03-14T07:45:53;3.23;;;2.70;;
12348;SDS011;5974;42.710;27.258;2023-03-14T07:48:20;2.83;;;1.80;;
12348;SDS011;5974;42.710;27.258;2023-03-14T07:50:50;7.67;;;2.53;;
12348;SDS011;5974;42.710;27.258;2023-03-14T07:53:17;3.13;;;2.23;;
12348;SDS011;5974;42.710;27.258;2023-03-14T07:55:46;3.27;;;1.93;;
12348;SDS011;5974;42.710;27.258;2023-03-14T07:58:13;3.53;;;2.53;;
12348;SDS011;5974;42.710;27.258;2023-03-14T08:00:40;2.47;;;2.00;;
12348;SDS011;5974;42.710;27.258;2023-03-14T08:03:07;5.23;;;2.27;;
12348;SDS011;5974;42.710;27.258;2023-03-14T08:05:34;5.07;;;2.93;;
12348;SDS011;5974;42.710;27.258;2023-03-14T08:08:01;3.03;;;1.73;;
12348;SDS011;5974;42.710;27.258;2023-03-14T08:10:28;6.23;;;3.80;;
12348;SDS011;5974;42.710;27.258;2023-03-14T08:12:57;3.57;;;2.40;;
12348;SDS011;5974;42.710;27.258;2023-03-14T08:15:25;4.23;;;2.00;;
12348;SDS011;5974;42.710;27.258;2023-03-14T08:17:53;2.97;;;2.00;;
12348;SDS011;5974;42.710;27.258;2023-03-14T08:20:20;3.70;;;1.80;;
12348;SDS011;5974;42.710;27.258;2023-03-14T08:22:48;8.03;;;1.90;;
12348;SDS011;5974;42.710;27.258;2023-03-14T08:25:15;3.17;;;2.00;;
12348;SDS011;5974;42.710;27.258;2023-03-14T08:27:43;8.97;;;6.50;;
12348;SDS011;5974;42.710;27.258;2023-03-14T08:30:14;4.90;;;1.97;;
12348;SDS011;5974;42.710;27.258;2023-03-14T08:32:42;3.30;;;2.00;;
12348;SDS011;5974;42.710;27.258;2023-03-14T08:35:09;1.60;;;1.50;;
12348;SDS011;5974;42.710;27.258;2023-03-14T08:37:36;3.67;;;2.43;;
12348;SDS011;5974;42.710;27.258;2023-03-14T08:40:03;4.27;;;2.23;;
12348;SDS011;5974;42.710;27.258;2023-03-14T08:42:33;2.80;;;2.00;;
12348;SDS011;5974;42.710;27.258;2023-03-14T08:45:00;2.40;;;1.77;;
12348;SDS011;5974;42.710;27.258;2023-03-14T08:47:28;2.50;;;1.87;;
12348;SDS011;5974;42.710;27.258;2023-03-14T08:49:55;5.17;;;2.20;;
12348;SDS011;5974;42.710;27.258;2023-03-14T08:52:22;6.90;;;2.10;;
12348;SDS011;5974;42.710;27.258;2023-03-14T08:54:49;5.10;;;1.80;;
12348;SDS011;5974;42.710;27.258;2023-03-14T08:57:15;4.23;;;3.40;;
12348;SDS011;5974;42.710;27.258;2023-03-14T08:59:42;2.90;;;1.47;;
12348;SDS011;5974;42.710;27.258;2023-03-14T09:02:09;2.90;;;1.17;;
12348;SDS011;5974;42.710;27.258;2023-03-14T09:04:38;2.87;;;1.60;;
12348;SDS011;5974;42.710;27.258;2023-03-14T09:07:05;4.37;;;2.73;;
12348;SDS011;5974;42.710;27.258;2023-03-14T09:09:32;2.47;;;1.83;;
12348;SDS011;5974;42.710;27.258;2023-03-14T09:11:59;2.67;;;1.40;;
12348;SDS011;5974;42.710;27.258;2023-03-14T09:14:26;4.37;;;1.73;;
12348;SDS011;5974;42.710;27.258;2023-03-14T09:16:52;4.17;;;1.50;;
12348;SDS011;5974;42.710;27.258;2023-03-14T09:19:19;3.37;;;1.47;;
12348;SDS011;5974;42.710;27.258;2023-03-14T09:21:48;4.83;;;1.30;;
12348;SDS011;5974;42.710;27.258;2023-03-14T09:24:15;4.30;;;2.70;;
12348;SDS011;5974;42.710;27.258;2023-03-14T09:26:42;2.23;;;1.87;;
12348;SDS011;5974;42.710;27.258;2023-03-14T09:29:09;2.57;;;1.10;;
12348;SDS011;5974;42.710;27.258;2023-03-14T09:31:36;7.20;;;2.90;;
12348;SDS011;5974;42.710;27.258;2023-03-14T09:34:03;4.10;;;1.70;;
12348;SDS011;5974;42.710;27.258;2023-03-14T09:36:30;6.80;;;3.30;;
12348;SDS011;5974;42.710;27.258;2023-03-14T09:38:58;3.37;;;1.70;;
12348;SDS011;5974;42.710;27.258;2023-03-14T09:41:25;1.40;;;0.90;;
12348;SDS011;5974;42.710;27.258;2023-03-14T09:43:58;2.97;;;1.23;;
12348;SDS011;5974;42.710;27.258;2023-03-14T09:46:29;2.47;;;1.13;;
12348;SDS011;5974;42.710;27.258;2023-03-14T09:48:59;1.90;;;0.90;;
12348;SDS011;5974;42.710;27.258;2023-03-14T09:51:26;3.93;;;1.40;;
12348;SDS011;5974;42.710;27.258;2023-03-14T09:53:54;2.70;;;1.40;;
12348;SDS011;5974;42.710;27.258;2023-03-14T09:56:23;2.37;;;2.17;;
12348;SDS011;5974;42.710;27.258;2023-03-14T09:58:53;5.20;;;3.30;;
12348;SDS011;5974;42.710;27.258;2023-03-14T10:01:24;2.23;;;1.30;;
12348;SDS011;5974;42.710;27.258;2023-03-14T10:03:53;1.77;;;1.13;;
12348;SDS011;5974;42.710;27.258;2023-03-14T10:06:22;1.70;;;1.10;;
12348;SDS011;5974;42.710;27.258;2023-03-14T10:08:52;2.40;;;1.37;;
12348;SDS011;5974;42.710;27.258;2023-03-14T10:11:21;2.57;;;1.27;;
12348;SDS011;5974;42.710;27.258;2023-03-14T10:14:03;1.73;;;1.50;;
12348;SDS011;5974;42.710;27.258;2023-03-14T10:16:33;4.30;;;1.30;;
12348;SDS011;5974;42.710;27.258;2023-03-14T10:19:02;1.87;;;1.10;;
12348;SDS011;5974;42.710;27.258;2023-03-14T10:21:32;1.73;;;1.33;;
12348;SDS011;5974;42.710;27.258;2023-03-14T10:26:55;4.53;;;1.60;;
12348;SDS011;5974;42.710;27.258;2023-03-14T10:29:26;3.60;;;1.50;;
12348;SDS011;5974;42.710;27.258;2023-03-14T10:31:54;3.63;;;2.07;;
12348;SDS011;5974;42.710;27.258;2023-03-14T10:34:25;1.90;;;1.70;;
12348;SDS011;5974;42.710;27.258;2023-03-14T10:36:55;2.20;;;1.40;;
12348;SDS011;5974;42.710;27.258;2023-03-14T10:39:28;2.40;;;1.90;;
12348;SDS011;5974;42.710;27.258;2023-03-14T10:42:04;5.13;;;2.50;;
12348;SDS011;5974;42.710;27.258;2023-03-14T10:44:38;3.83;;;2.40;;
12348;SDS011;5974;42.710;27.258;2023-03-14T10:47:12;2.43;;;1.47;;
12348;SDS011;5974;42.710;27.258;2023-03-14T10:49:44;2.17;;;1.97;;
12348;SDS011;5974;42.710;27.258;2023-03-14T10:52:13;6.87;;;1.87;;
12348;SDS011;5974;42.710;27.258;2023-03-14T10:54:46;2.97;;;1.50;;
12348;SDS011;5974;42.710;27.258;2023-03-14T10:57:18;2.13;;;1.47;;
12348;SDS011;5974;42.710;27.258;2023-03-14T10:59:45;3.20;;;1.77;;
12348;SDS011;5974;42.710;27.258;2023-03-14T11:02:21;2.50;;;1.70;;
12348;SDS011;5974;42.710;27.258;2023-03-14T11:04:59;2.20;;;1.60;;
12348;SDS011;5974;42.710;27.258;2023-03-14T11:07:36;2.20;;;1.37;;
12348;SDS011;5974;42.710;27.258;2023-03-14T11:10:08;2.50;;;1.30;;
12348;SDS011;5974;42.710;27.258;2023-03-14T11:12:44;2.27;;;1.23;;
12348;SDS011;5974;42.710;27.258;2023-03-14T11:15:20;1.23;;;1.20;;
12348;SDS011;5974;42.710;27.258;2023-03-14T11:17:59;3.20;;;2.80;;
12348;SDS011;5974;42.710;27.258;2023-03-14T11:20:42;2.50;;;2.03;;
12348;SDS011;5974;42.710;27.258;2023-03-14T11:23:13;1.50;;;1.40;;
12348;SDS011;5974;42.710;27.258;2023-03-14T11:25:45;2.60;;;1.33;;
12348;SDS011;5974;42.710;27.258;2023-03-14T11:28:23;5.77;;;3.70;;
12348;SDS011;5974;42.710;27.258;2023-03-14T11:30:58;2.77;;;1.30;;
12348;SDS011;5974;42.710;27.258;2023-03-14T11:33:33;4.77;;;1.37;;
12348;SDS011;5974;42.710;27.258;2023-03-14T11:36:04;1.53;;;1.10;;
12348;SDS011;5974;42.710;27.258;2023-03-14T11:38:35;2.07;;;1.23;;
12348;SDS011;5974;42.710;27.258;2023-03-14T11:41:08;3.17;;;1.57;;
12348;SDS011;5974;42.710;27.258;2023-03-14T11:43:40;2.87;;;1.93;;
12348;SDS011;5974;42.710;27.258;2023-03-14T11:46:09;1.90;;;1.70;;
12348;SDS011;5974;42.710;27.258;2023-03-14T11:48:42;4.63;;;1.60;;
12348;SDS011;5974;42.710;27.258;2023-03-14T11:51:13;2.40;;;1.70;;
12348;SDS011;5974;42.710;27.258;2023-03-14T11:53:53;5.50;;;1.50;;
12348;SDS011;5974;42.710;27.258;2023-03-14T11:56:31;1.33;;;1.23;;
12348;SDS011;5974;42.710;27.258;2023-03-14T11:59:03;2.87;;;1.40;;
12348;SDS011;5974;42.710;27.258;2023-03-14T12:01:36;2.60;;;2.00;;
12348;SDS011;5974;42.710;27.258;2023-03-14T12:04:12;2.47;;;1.57;;
12348;SDS011;5974;42.710;27.258;2023-03-14T12:06:46;2.67;;;1.73;;
12348;SDS011;5974;42.710;27.258;2023-03-14T12:09:15;1.83;;;1.73;;
12348;SDS011;5974;42.710;27.258;2023-03-14T12:11:43;2.80;;;1.70;;
12348;SDS011;5974;42.710;27.258;2023-03-14T12:14:19;2.10;;;1.90;;
12348;SDS011;5974;42.710;27.258;2023-03-14T12:16:49;2.30;;;1.43;;
12348;SDS011;5974;42.710;27.258;2023-03-14T12:19:31;8.07;;;4.93;;
12348;SDS011;5974;42.710;27.258;2023-03-14T12:22:15;2.30;;;1.80;;
12348;SDS011;5974;42.710;27.258;2023-03-14T12:24:50;3.63;;;2.37;;
12348;SDS011;5974;42.710;27.258;2023-03-14T12:30:15;1.73;;;1.40;;
12348;SDS011;5974;42.710;27.258;2023-03-14T12:33:19;1.70;;;1.20;;
12348;SDS011;5974;42.710;27.258;2023-03-14T12:35:57;3.20;;;1.33;;
12348;SDS011;5974;42.710;27.258;2023-03-14T12:38:28;3.30;;;1.30;;
12348;SDS011;5974;42.710;27.258;2023-03-14T12:41:06;2.73;;;1.50;;
12348;SDS011;5974;42.710;27.258;2023-03-14T12:43:41;1.97;;;1.73;;
12348;SDS011;5974;42.710;27.258;2023-03-14T12:46:14;2.50;;;1.70;;
12348;SDS011;5974;42.710;27.258;2023-03-14T12:48:46;3.33;;;1.47;;
12348;SDS011;5974;42.710;27.258;2023-03-14T12:51:15;2.63;;;1.80;;
12348;SDS011;5974;42.710;27.258;2023-03-14T12:53:55;1.93;;;1.53;;
12348;SDS011;5974;42.710;27.258;2023-03-14T12:56:43;1.67;;;1.57;;
12348;SDS011;5974;42.710;27.258;2023-03-14T12:59:32;6.50;;;2.83;;
12348;SDS011;5974;42.710;27.258;2023-03-14T13:02:10;1.63;;;1.53;;
12348;SDS011;5974;42.710;27.258;2023-03-14T13:04:47;1.87;;;1.77;;
12348;SDS011;5974;42.710;27.258;2023-03-14T13:07:28;3.80;;;2.40;;
12348;SDS011;5974;42.710;27.258;2023-03-14T13:10:00;2.57;;;1.80;;
12348;SDS011;5974;42.710;27.258;2023-03-14T13:12:34;4.33;;;2.23;;
12348;SDS011;5974;42.710;27.258;2023-03-14T13:15:15;3.70;;;2.27;;
12348;SDS011;5974;42.710;27.258;2023-03-14T13:17:47;4.47;;;3.00;;
12348;SDS011;5974;42.710;27.258;2023-03-14T13:20:16;4.50;;;3.10;;
12348;SDS011;5974;42.710;27.258;2023-03-14T13:22:47;2.30;;;1.80;;
12348;SDS011;5974;42.710;27.258;2023-03-14T13:25:15;5.97;;;2.63;;
12348;SDS011;5974;42.710;27.258;2023-03-14T13:27:43;3.27;;;2.40;;
12348;SDS011;5974;42.710;27.258;2023-03-14T13:30:21;4.73;;;2.23;;
12348;SDS011;5974;42.710;27.258;2023-03-14T13:32:51;5.20;;;2.07;;
12348;SDS011;5974;42.710;27.258;2023-03-14T13:35:21;2.67;;;1.73;;
12348;SDS011;5974;42.710;27.258;2023-03-14T13:37:56;3.63;;;1.80;;
12348;SDS011;5974;42.710;27.258;2023-03-14T13:40:25;3.80;;;2.00;;
12348;SDS011;5974;42.710;27.258;2023-03-14T13:43:03;2.67;;;1.77;;
12348;SDS011;5974;42.710;27.258;2023-03-14T13:45:41;3.57;;;2.43;;
12348;SDS011;5974;42.710;27.258;2023-03-14T13:48:12;2.93;;;2.27;;
12348;SDS011;5974;42.710;27.258;2023-03-14T13:50:44;4.63;;;2.20;;
12348;SDS011;5974;42.710;27.258;2023-03-14T13:53:12;3.07;;;2.00;;
12348;SDS011;5974;42.710;27.258;2023-03-14T13:55:39;7.57;;;2.57;;
12348;SDS011;5974;42.710;27.258;2023-03-14T13:58:10;5.83;;;2.77;;
12348;SDS011;5974;42.710;27.258;2023-03-14T14:00:45;4.53;;;2.90;;
12348;SDS011;5974;42.710;27.258;2023-03-14T14:03:26;4.63;;;1.80;;
12348;SDS011;5974;42.710;27.258;2023-03-14T14:05:55;3.67;;;2.20;;
12348;SDS011;5974;42.710;27.258;2023-03-14T14:08:23;7.57;;;2.27;;
12348;SDS011;5974;42.710;27.258;2023-03-14T14:10:52;4.67;;;3.07;;
12348;SDS011;5974;42.710;27.258;2023-03-14T14:13:24;3.83;;;1.87;;
12348;SDS011;5974;42.710;27.258;2023-03-14T14:15:53;3.57;;;2.13;;
12348;SDS011;5974;42.710;27.258;2023-03-14T14:18:22;3.70;;;1.40;;
12348;SDS011;5974;42.710;27.258;2023-03-14T14:20:53;1.30;;;1.20;;
12348;SDS011;5974;42.710;27.258;2023-03-14T14:23:21;2.93;;;1.20;;
12348;SDS011;5974;42.710;27.258;2023-03-14T14:25:54;1.10;;;1.03;;
12348;SDS011;5974;42.710;27.258;2023-03-14T14:28:23;3.47;;;1.20;;
12348;SDS011;5974;42.710;27.258;2023-03-14T14:30:59;2.03;;;1.30;;
12348;SDS011;5974;42.710;27.258;2023-03-14T14:33:38;1.27;;;1.10;;
12348;SDS011;5974;42.710;27.258;2023-03-14T14:36:14;1.93;;;1.20;;
12348;SDS011;5974;42.710;27.258;2023-03-14T14:38:51;1.30;;;1.20;;
12348;SDS011;5974;42.710;27.258;2023-03-14T14:41:19;1.57;;;1.07;;
12348;SDS011;5974;42.710;27.258;2023-03-14T14:43:47;3.27;;;1.67;;
12348;SDS011;5974;42.710;27.258;2023-03-14T14:46:16;6.57;;;5.97;;
12348;SDS011;5974;42.710;27.258;2023-03-14T14:48:45;22.93;;;17.67;;
12348;SDS011;5974;42.710;27.258;2023-03-14T14:51:23;4.80;;;4.37;;
12348;SDS011;5974;42.710;27.258;2023-03-14T14:54:00;4.17;;;3.20;;
12348;SDS011;5974;42.710;27.258;2023-03-14T14:56:36;4.93;;;3.73;;
12348;SDS011;5974;42.710;27.258;2023-03-14T14:59:04;3.53;;;2.93;;
12348;SDS011;5974;42.710;27.258;2023-03-14T15:01:33;0.93;;;0.87;;
12348;SDS011;5974;42.710;27.258;2023-03-14T15:04:03;3.73;;;2.63;;